sensor_id;sensor_type;location;lat;lon;timestamp;P1;durP1;ratioP1;P2;durP2;ratioP2
3817;SDS011;1924;48.078;11.516;2023-07-24T04:01:32;35.47;;;0.80;;
3817;SDS011;1924;48.078;11.516;2023-07-24T04:03:59;35.37;;;0.80;;
3817;SDS011;1924;48.078;11.516;2023-07-24T04:06:26;35.17;;;0.80;;
3817;SDS011;1924;48.078;11.516;2023-07-24T04:08:53;35.60;;;0.80;;
3817;SDS011;1924;48.078;11.516;2023-07-24T04:11:19;35.23;;;0.80;;
3817;SDS011;1924;48.078;11.516;2023-07-24T04:13:46;35.47;;;0.80;;
3817;SDS011;1924;48.078;11.516;2023-07-24T04:16:16;35.30;;;0.80;;
3817;SDS011;1924;48.078;11.516;2023-07-24T04:18:44;35.40;;;0.80;;
3817;SDS011;1924;48.078;11.516;2023-07-24T04:21:10;35.50;;;0.80;;
3817;SDS011;1924;48.078;11.516;2023-07-24T04:23:37;35.27;;;0.80;;
3817;SDS011;1924;48.078;11.516;2023-07-24T04:26:04;35.23;;;0.80;;
3817;SDS011;1924;48.078;11.516;2023-07-24T04:28:30;35.30;;;0.80;;
3817;SDS011;1924;48.078;11.516;2023-07-24T04:30:59;35.40;;;0.80;;
3817;SDS011;1924;48.078;11.516;2023-07-24T04:33:26;35.17;;;0.80;;
3817;SDS011;1924;48.078;11.516;2023-07-24T04:35:55;35.33;;;0.80;;
3817;SDS011;1924;48.078;11.516;2023-07-24T04:38:22;35.17;;;0.80;;
3817;SDS011;1924;48.078;11.516;2023-07-24T04:40:49;35.13;;;0.80;;
3817;SDS011;1924;48.078;11.516;2023-07-24T04:43:15;35.03;;;0.80;;
3817;SDS011;1924;48.078;11.516;2023-07-24T04:45:42;34.97;;;0.80;;
3817;SDS011;1924;48.078;11.516;2023-07-24T04:48:09;35.00;;;0.80;;
3817;SDS011;1924;48.078;11.516;2023-07-24T04:50:35;35.23;;;0.80;;
3817;SDS011;1924;48.078;11.516;2023-07-24T04:53:03;35.20;;;0.80;;
3817;SDS011;1924;48.078;11.516;2023-07-24T04:55:30;35.17;;;0.80;;
3817;SDS011;1924;48.078;11.516;2023-07-24T04:57:57;35.13;;;0.80;;
3817;SDS011;1924;48.078;11.516;2023-07-24T05:00:24;34.93;;;0.80;;
3817;SDS011;1924;48.078;11.516;2023-07-24T05:02:51;35.23;;;0.80;;
3817;SDS011;1924;48.078;11.516;2023-07-24T05:05:18;35.07;;;0.80;;
3817;SDS011;1924;48.078;11.516;2023-07-24T05:07:45;35.10;;;0.80;;
3817;SDS011;1924;48.078;11.516;2023-07-24T05:10:14;34.83;;;0.80;;
3817;SDS011;1924;48.078;11.516;2023-07-24T05:12:41;35.13;;;0.80;;
3817;SDS011;1924;48.078;11.516;2023-07-24T05:15:08;34.87;;;0.80;;
3817;SDS011;1924;48.078;11.516;2023-07-24T05:17:35;34.87;;;0.80;;
3817;SDS011;1924;48.078;11.516;2023-07-24T05:20:02;34.93;;;0.80;;
3817;SDS011;1924;48.078;11.516;2023-07-24T05:22:29;35.00;;;0.80;;
3817;SDS011;1924;48.078;11.516;2023-07-24T05:24:56;35.13;;;0.80;;
3817;SDS011;1924;48.078;11.516;2023-07-24T05:27:24;35.10;;;0.80;;
3817;SDS011;1924;48.078;11.516;2023-07-24T05:29:51;34.63;;;0.80;;
3817;SDS011;1924;48.078;11.516;2023-07-24T05:32:18;34.90;;;0.80;;
3817;SDS011;1924;48.078;11.516;2023-07-24T05:34:45;34.97;;;0.80;;
3817;SDS011;1924;48.078;11.516;2023-07-24T05:37:11;34.90;;;0.80;;
3817;SDS011;1924;48.078;11.516;2023-07-24T05:39:38;34.80;;;0.80;;
3817;SDS011;1924;48.078;11.516;2023-07-24T05:42:05;34.97;;;0.80;;
3817;SDS011;1924;48.078;11.516;2023-07-24T05:44:33;34.73;;;0.80;;
3817;SDS011;1924;48.078;11.516;2023-07-24T05:47:02;34.93;;;0.80;;
3817;SDS011;1924;48.078;11.516;2023-07-24T05:49:29;34.83;;;0.80;;
3817;SDS011;1924;48.078;11.516;2023-07-24T05:51:56;34.80;;;0.80;;
3817;SDS011;1924;48.078;11.516;2023-07-24T05:54:23;34.77;;;0.80;;
3817;SDS011;1924;48.078;11.516;2023-07-24T05:56:49;35.00;;;0.80;;
3817;SDS011;1924;48.078;11.516;2023-07-24T05:59:18;35.00;;;0.80;;
3817;SDS011;1924;48.078;11.516;2023-07-24T06:01:46;34.87;;;0.80;;
3817;SDS011;1924;48.078;11.516;2023-07-24T06:04:13;35.03;;;0.80;;
3817;SDS011;1924;48.078;11.516;2023-07-24T06:06:39;35.20;;;0.80;;
3817;SDS011;1924;48.078;11.516;2023-07-24T06:09:06;35.17;;;0.80;;
3817;SDS011;1924;48.078;11.516;2023-07-24T06:11:33;35.17;;;0.80;;
3817;SDS011;1924;48.078;11.516;2023-07-24T06:13:59;35.17;;;0.80;;
3817;SDS011;1924;48.078;11.516;2023-07-24T06:16:26;35.27;;;0.80;;
3817;SDS011;1924;48.078;11.516;2023-07-24T06:18:54;35.27;;;0.80;;
3817;SDS011;1924;48.078;11.516;2023-07-24T06:21:21;35.40;;;0.80;;
3817;SDS011;1924;48.078;11.516;2023-07-24T06:23:48;35.60;;;0.80;;
3817;SDS011;1924;48.078;11.516;2023-07-24T06:26:14;35.57;;;0.80;;
3817;SDS011;1924;48.078;11.516;2023-07-24T06:28:41;35.60;;;0.80;;
3817;SDS011;1924;48.078;11.516;2023-07-24T06:31:09;35.50;;;0.80;;
3817;SDS011;1924;48.078;11.516;2023-07-24T06:33:36;35.30;;;0.80;;
3817;SDS011;1924;48.078;11.516;2023-07-24T06:36:04;35.30;;;0.80;;
3817;SDS011;1924;48.078;11.516;2023-07-24T06:38:35;35.13;;;0.80;;
3817;SDS011;1924;48.078;11.516;2023-07-24T06:41:02;35.20;;;0.80;;
3817;SDS011;1924;48.078;11.516;2023-07-24T06:43:29;35.17;;;0.80;;
3817;SDS011;1924;48.078;11.516;2023-07-24T06:45:55;35.03;;;0.80;;
3817;SDS011;1924;48.078;11.516;2023-07-24T06:48:22;35.17;;;0.80;;
3817;SDS011;1924;48.078;11.516;2023-07-24T06:50:49;35.37;;;0.80;;
3817;SDS011;1924;48.078;11.516;2023-07-24T06:53:17;35.47;;;0.80;;
3817;SDS011;1924;48.078;11.516;2023-07-24T06:55:43;35.30;;;0.80;;
3817;SDS011;1924;48.078;11.516;2023-07-24T06:58:10;35.17;;;0.80;;
3817;SDS011;1924;48.078;11.516;2023-07-24T07:00:37;35.43;;;0.80;;
3817;SDS011;1924;48.078;11.516;2023-07-24T07:03:03;35.20;;;0.80;;
3817;SDS011;1924;48.078;11.516;2023-07-24T07:05:31;35.17;;;0.80;;
3817;SDS011;1924;48.078;11.516;2023-07-24T07:07:57;35.30;;;0.80;;
3817;SDS011;1924;48.078;11.516;2023-07-24T07:10:25;35.30;;;0.80;;
3817;SDS011;1924;48.078;11.516;2023-07-24T07:12:53;35.23;;;0.80;;
3817;SDS011;1924;48.078;11.516;2023-07-24T07:15:20;35.37;;;0.80;;
3817;SDS011;1924;48.078;11.516;2023-07-24T07:17:46;34.97;;;0.80;;
3817;SDS011;1924;48.078;11.516;2023-07-24T07:20:13;35.17;;;0.80;;
3817;SDS011;1924;48.078;11.516;2023-07-24T07:22:40;35.17;;;0.80;;
3817;SDS011;1924;48.078;11.516;2023-07-24T07:25:07;35.07;;;0.80;;
3817;SDS011;1924;48.078;11.516;2023-07-24T07:27:35;35.27;;;0.80;;
3817;SDS011;1924;48.078;11.516;2023-07-24T07:30:02;35.27;;;0.80;;
3817;SDS011;1924;48.078;11.516;2023-07-24T07:32:30;35.37;;;0.80;;
3817;SDS011;1924;48.078;11.516;2023-07-24T07:34:56;35.07;;;0.80;;
3817;SDS011;1924;48.078;11.516;2023-07-24T07:37:23;35.47;;;0.80;;
3817;SDS011;1924;48.078;11.516;2023-07-24T07:39:50;35.43;;;0.80;;
3817;SDS011;1924;48.078;11.516;2023-07-24T07:42:16;35.60;;;0.80;;
3817;SDS011;1924;48.078;11.516;2023-07-24T07:44:45;35.53;;;0.80;;
3817;SDS011;1924;48.078;11.516;2023-07-24T07:47:11;35.70;;;0.80;;
3817;SDS011;1924;48.078;11.516;2023-07-24T07:49:38;35.50;;;0.90;;
3817;SDS011;1924;48.078;11.516;2023-07-24T07:52:06;35.57;;;0.80;;
3817;SDS011;1924;48.078;11.516;2023-07-24T07:54:33;35.90;;;0.80;;
3817;SDS011;1924;48.078;11.516;2023-07-24T07:57:00;35.90;;;0.80;;
3817;SDS011;1924;48.078;11.516;2023-07-24T07:59:27;35.47;;;0.80;;
3817;SDS011;1924;48.078;11.516;2023-07-24T08:01:55;35.63;;;0.80;;
3817;SDS011;1924;48.078;11.516;2023-07-24T08:04:21;35.67;;;0.80;;
3817;SDS011;1924;48.078;11.516;2023-07-24T08:06:48;35.67;;;0.80;;
3817;SDS011;1924;48.078;11.516;2023-07-24T08:09:15;35.67;;;0.80;;
3817;SDS011;1924;48.078;11.516;2023-07-24T08:11:42;35.67;;;0.80;;
3817;SDS011;1924;48.078;11.516;2023-07-24T08:14:09;35.80;;;0.80;;
3817;SDS011;1924;48.078;11.516;2023-07-24T08:16:36;35.60;;;0.80;;
3817;SDS011;1924;48.078;11.516;2023-07-24T08:19:04;35.80;;;0.80;;
3817;SDS011;1924;48.078;11.516;2023-07-24T08:21:30;35.47;;;0.80;;
3817;SDS011;1924;48.078;11.516;2023-07-24T08:23:57;35.57;;;0.80;;
3817;SDS011;1924;48.078;11.516;2023-07-24T08:26:25;35.63;;;0.80;;
3817;SDS011;1924;48.078;11.516;2023-07-24T08:28:52;35.60;;;0.80;;
3817;SDS011;1924;48.078;11.516;2023-07-24T08:31:19;35.70;;;0.80;;
3817;SDS011;1924;48.078;11.516;2023-07-24T08:33:45;35.50;;;0.80;;
3817;SDS011;1924;48.078;11.516;2023-07-24T08:36:13;35.47;;;0.90;;
3817;SDS011;1924;48.078;11.516;2023-07-24T08:38:40;35.53;;;0.80;;
3817;SDS011;1924;48.078;11.516;2023-07-24T08:41:08;35.47;;;0.80;;
3817;SDS011;1924;48.078;11.516;2023-07-24T08:43:36;35.60;;;0.80;;
3817;SDS011;1924;48.078;11.516;2023-07-24T08:46:04;35.27;;;0.80;;
3817;SDS011;1924;48.078;11.516;2023-07-24T08:48:32;35.57;;;0.80;;
3817;SDS011;1924;48.078;11.516;2023-07-24T08:51:01;35.23;;;0.80;;
3817;SDS011;1924;48.078;11.516;2023-07-24T08:53:29;35.47;;;0.80;;
3817;SDS011;1924;48.078;11.516;2023-07-24T08:55:57;35.40;;;0.80;;
3817;SDS011;1924;48.078;11.516;2023-07-24T08:58:26;35.47;;;0.80;;
3817;SDS011;1924;48.078;11.516;2023-07-24T09:00:53;35.23;;;0.80;;
3817;SDS011;1924;48.078;11.516;2023-07-24T09:03:20;35.33;;;0.80;;
3817;SDS011;1924;48.078;11.516;2023-07-24T09:05:46;35.20;;;0.80;;
3817;SDS011;1924;48.078;11.516;2023-07-24T09:08:13;35.50;;;0.80;;
3817;SDS011;1924;48.078;11.516;2023-07-24T09:10:41;35.50;;;0.80;;
3817;SDS011;1924;48.078;11.516;2023-07-24T09:13:11;35.57;;;0.80;;
3817;SDS011;1924;48.078;11.516;2023-07-24T09:15:41;35.27;;;0.80;;
3817;SDS011;1924;48.078;11.516;2023-07-24T09:18:08;35.50;;;0.80;;
3817;SDS011;1924;48.078;11.516;2023-07-24T09:20:39;35.50;;;0.80;;
3817;SDS011;1924;48.078;11.516;2023-07-24T09:23:06;35.57;;;0.80;;
3817;SDS011;1924;48.078;11.516;2023-07-24T09:25:34;35.47;;;0.80;;
3817;SDS011;1924;48.078;11.516;2023-07-24T09:28:10;35.13;;;0.80;;
3817;SDS011;1924;48.078;11.516;2023-07-24T09:30:37;35.40;;;0.80;;
3817;SDS011;1924;48.078;11.516;2023-07-24T09:33:04;35.33;;;0.80;;
3817;SDS011;1924;48.078;11.516;2023-07-24T09:35:31;35.33;;;0.80;;
3817;SDS011;1924;48.078;11.516;2023-07-24T09:38:01;35.40;;;0.80;;
3817;SDS011;1924;48.078;11.516;2023-07-24T09:40:36;35.07;;;0.80;;
3817;SDS011;1924;48.078;11.516;2023-07-24T09:43:15;35.30;;;0.80;;
3817;SDS011;1924;48.078;11.516;2023-07-24T09:45:43;35.07;;;0.80;;
3817;SDS011;1924;48.078;11.516;2023-07-24T09:48:10;35.07;;;0.80;;
3817;SDS011;1924;48.078;11.516;2023-07-24T09:50:40;35.17;;;0.80;;
3817;SDS011;1924;48.078;11.516;2023-07-24T09:53:09;35.13;;;0.80;;
3817;SDS011;1924;48.078;11.516;2023-07-24T09:55:40;34.97;;;0.80;;
3817;SDS011;1924;48.078;11.516;2023-07-24T09:58:12;35.23;;;0.80;;
3817;SDS011;1924;48.078;11.516;2023-07-24T10:00:41;35.10;;;0.80;;
3817;SDS011;1924;48.078;11.516;2023-07-24T10:03:08;35.07;;;0.80;;
3817;SDS011;1924;48.078;11.516;2023-07-24T10:05:36;35.07;;;0.80;;
3817;SDS011;1924;48.078;11.516;2023-07-24T10:08:03;35.20;;;0.80;;
3817;SDS011;1924;48.078;11.516;2023-07-24T10:10:31;35.10;;;0.80;;
3817;SDS011;1924;48.078;11.516;2023-07-24T10:12:58;35.07;;;0.80;;
3817;SDS011;1924;48.078;11.516;2023-07-24T10:15:25;35.07;;;0.80;;
3817;SDS011;1924;48.078;11.516;2023-07-24T10:18:00;35.00;;;0.80;;
3817;SDS011;1924;48.078;11.516;2023-07-24T10:20:32;34.87;;;0.80;;
3817;SDS011;1924;48.078;11.516;2023-07-24T10:23:00;35.00;;;0.80;;
3817;SDS011;1924;48.078;11.516;2023-07-24T10:25:31;35.03;;;0.80;;
3817;SDS011;1924;48.078;11.516;2023-07-24T10:28:02;34.97;;;0.80;;
3817;SDS011;1924;48.078;11.516;2023-07-24T10:30:32;34.93;;;0.80;;
3817;SDS011;1924;48.078;11.516;2023-07-24T10:33:05;34.73;;;0.80;;
3817;SDS011;1924;48.078;11.516;2023-07-24T10:35:36;34.90;;;0.80;;
3817;SDS011;1924;48.078;11.516;2023-07-24T10:38:07;34.67;;;0.80;;
3817;SDS011;1924;48.078;11.516;2023-07-24T10:40:35;34.70;;;0.80;;
3817;SDS011;1924;48.078;11.516;2023-07-24T10:43:05;34.63;;;0.80;;
3817;SDS011;1924;48.078;11.516;2023-07-24T10:45:45;34.63;;;0.80;;
3817;SDS011;1924;48.078;11.516;2023-07-24T10:48:15;34.70;;;0.80;;
3817;SDS011;1924;48.078;11.516;2023-07-24T10:50:43;34.70;;;0.80;;
3817;SDS011;1924;48.078;11.516;2023-07-24T10:53:11;34.90;;;0.80;;
3817;SDS011;1924;48.078;11.516;2023-07-24T10:55:40;34.67;;;0.80;;
3817;SDS011;1924;48.078;11.516;2023-07-24T10:58:07;34.60;;;0.80;;
3817;SDS011;1924;48.078;11.516;2023-07-24T11:00:35;34.83;;;0.80;;
3817;SDS011;1924;48.078;11.516;2023-07-24T11:03:02;34.60;;;0.80;;
3817;SDS011;1924;48.078;11.516;2023-07-24T11:05:30;34.67;;;0.80;;
3817;SDS011;1924;48.078;11.516;2023-07-24T11:07:58;34.80;;;0.80;;
3817;SDS011;1924;48.078;11.516;2023-07-24T11:10:25;34.67;;;0.80;;
3817;SDS011;1924;48.078;11.516;2023-07-24T11:12:52;34.93;;;0.80;;
3817;SDS011;1924;48.078;11.516;2023-07-24T11:15:23;35.00;;;0.80;;
3817;SDS011;1924;48.078;11.516;2023-07-24T11:17:51;35.00;;;0.80;;
3817;SDS011;1924;48.078;11.516;2023-07-24T11:20:18;34.90;;;0.80;;
3817;SDS011;1924;48.078;11.516;2023-07-24T11:22:47;35.13;;;0.80;;
3817;SDS011;1924;48.078;11.516;2023-07-24T11:25:13;35.03;;;0.80;;
3817;SDS011;1924;48.078;11.516;2023-07-24T11:27:40;35.33;;;0.80;;
3817;SDS011;1924;48.078;11.516;2023-07-24T11:30:09;35.17;;;0.80;;
3817;SDS011;1924;48.078;11.516;2023-07-24T11:32:37;35.20;;;0.80;;
3817;SDS011;1924;48.078;11.516;2023-07-24T11:35:05;34.93;;;0.80;;
3817;SDS011;1924;48.078;11.516;2023-07-24T11:37:33;35.27;;;0.80;;
3817;SDS011;1924;48.078;11.516;2023-07-24T11:40:02;35.00;;;0.80;;
3817;SDS011;1924;48.078;11.516;2023-07-24T11:42:36;35.03;;;0.80;;
3817;SDS011;1924;48.078;11.516;2023-07-24T11:45:04;34.97;;;0.80;;
3817;SDS011;1924;48.078;11.516;2023-07-24T11:47:40;35.10;;;0.80;;
3817;SDS011;1924;48.078;11.516;2023-07-24T11:50:08;35.10;;;0.80;;
3817;SDS011;1924;48.078;11.516;2023-07-24T11:52:38;35.20;;;0.80;;
3817;SDS011;1924;48.078;11.516;2023-07-24T11:55:08;34.87;;;0.80;;
3817;SDS011;1924;48.078;11.516;2023-07-24T11:57:35;34.97;;;0.80;;
3817;SDS011;1924;48.078;11.516;2023-07-24T12:00:02;35.30;;;0.80;;
3817;SDS011;1924;48.078;11.516;2023-07-24T12:02:31;35.10;;;0.80;;
3817;SDS011;1924;48.078;11.516;2023-07-24T12:04:59;35.03;;;0.80;;
3817;SDS011;1924;48.078;11.516;2023-07-24T12:07:33;35.20;;;0.80;;
3817;SDS011;1924;48.078;11.516;2023-07-24T12:10:01;34.93;;;0.80;;
3817;SDS011;1924;48.078;11.516;2023-07-24T12:12:39;35.20;;;0.80;;
3817;SDS011;1924;48.078;11.516;2023-07-24T12:15:07;35.20;;;0.80;;
3817;SDS011;1924;48.078;11.516;2023-07-24T12:17:35;35.23;;;0.80;;
3817;SDS011;1924;48.078;11.516;2023-07-24T12:20:02;35.13;;;0.80;;
3817;SDS011;1924;48.078;11.516;2023-07-24T12:22:30;35.30;;;0.80;;
3817;SDS011;1924;48.078;11.516;2023-07-24T12:24:57;35.23;;;0.80;;
3817;SDS011;1924;48.078;11.516;2023-07-24T12:27:24;35.17;;;0.80;;
3817;SDS011;1924;48.078;11.516;2023-07-24T12:29:52;35.90;;;0.90;;
3817;SDS011;1924;48.078;11.516;2023-07-24T12:32:19;35.30;;;0.80;;
3817;SDS011;1924;48.078;11.516;2023-07-24T12:34:47;35.47;;;0.80;;
3817;SDS011;1924;48.078;11.516;2023-07-24T12:37:15;35.57;;;0.80;;
3817;SDS011;1924;48.078;11.516;2023-07-24T12:39:41;35.70;;;0.80;;
3817;SDS011;1924;48.078;11.516;2023-07-24T12:42:10;35.67;;;0.80;;
3817;SDS011;1924;48.078;11.516;2023-07-24T12:44:37;35.97;;;0.80;;
3817;SDS011;1924;48.078;11.516;2023-07-24T12:47:05;36.17;;;0.80;;
3817;SDS011;1924;48.078;11.516;2023-07-24T12:49:32;36.17;;;0.80;;
3817;SDS011;1924;48.078;11.516;2023-07-24T12:51:58;36.47;;;0.80;;
3817;SDS011;1924;48.078;11.516;2023-07-24T12:54:25;36.33;;;0.80;;
3817;SDS011;1924;48.078;11.516;2023-07-24T12:56:52;36.27;;;0.80;;
3817;SDS011;1924;48.078;11.516;2023-07-24T12:59:19;36.17;;;0.80;;
3817;SDS011;1924;48.078;11.516;2023-07-24T13:01:46;36.40;;;0.80;;
3817;SDS011;1924;48.078;11.516;2023-07-24T13:04:14;36.57;;;0.80;;
3817;SDS011;1924;48.078;11.516;2023-07-24T13:06:41;36.37;;;0.80;;
3817;SDS011;1924;48.078;11.516;2023-07-24T13:09:08;36.23;;;0.80;;
3817;SDS011;1924;48.078;11.516;2023-07-24T13:11:34;36.43;;;0.80;;
3817;SDS011;1924;48.078;11.516;2023-07-24T13:14:01;36.43;;;0.80;;
3817;SDS011;1924;48.078;11.516;2023-07-24T13:16:28;36.23;;;0.80;;
3817;SDS011;1924;48.078;11.516;2023-07-24T13:18:55;36.33;;;0.80;;
3817;SDS011;1924;48.078;11.516;2023-07-24T13:21:23;36.23;;;0.80;;
3817;SDS011;1924;48.078;11.516;2023-07-24T13:23:49;36.17;;;0.80;;
3817;SDS011;1924;48.078;11.516;2023-07-24T13:26:16;36.07;;;0.80;;
3817;SDS011;1924;48.078;11.516;2023-07-24T13:28:43;35.93;;;0.80;;
3817;SDS011;1924;48.078;11.516;2023-07-24T13:31:10;35.77;;;0.80;;
3817;SDS011;1924;48.078;11.516;2023-07-24T13:33:38;35.97;;;0.80;;
3817;SDS011;1924;48.078;11.516;2023-07-24T13:36:05;35.83;;;0.80;;
3817;SDS011;1924;48.078;11.516;2023-07-24T13:38:33;35.57;;;0.80;;
3817;SDS011;1924;48.078;11.516;2023-07-24T13:41:00;35.50;;;0.80;;
3817;SDS011;1924;48.078;11.516;2023-07-24T13:43:27;35.57;;;0.80;;
3817;SDS011;1924;48.078;11.516;2023-07-24T13:45:54;35.67;;;0.80;;
3817;SDS011;1924;48.078;11.516;2023-07-24T13:48:21;35.17;;;0.80;;
3817;SDS011;1924;48.078;11.516;2023-07-24T13:50:48;35.33;;;0.80;;
3817;SDS011;1924;48.078;11.516;2023-07-24T13:53:15;35.40;;;0.80;;
3817;SDS011;1924;48.078;11.516;2023-07-24T13:55:44;35.13;;;0.80;;
3817;SDS011;1924;48.078;11.516;2023-07-24T13:58:10;35.27;;;0.80;;
3817;SDS011;1924;48.078;11.516;2023-07-24T14:00:37;35.17;;;0.80;;
3817;SDS011;1924;48.078;11.516;2023-07-24T14:03:04;35.40;;;0.80;;
3817;SDS011;1924;48.078;11.516;2023-07-24T14:05:31;35.37;;;0.80;;
3817;SDS011;1924;48.078;11.516;2023-07-24T14:07:58;35.20;;;0.80;;
3817;SDS011;1924;48.078;11.516;2023-07-24T14:10:25;35.40;;;0.80;;
3817;SDS011;1924;48.078;11.516;2023-07-24T14:12:53;35.17;;;0.80;;
3817;SDS011;1924;48.078;11.516;2023-07-24T14:15:20;35.07;;;0.80;;
3817;SDS011;1924;48.078;11.516;2023-07-24T14:17:47;35.17;;;0.80;;
3817;SDS011;1924;48.078;11.516;2023-07-24T14:20:13;35.37;;;0.80;;
3817;SDS011;1924;48.078;11.516;2023-07-24T14:22:41;35.27;;;0.80;;
3817;SDS011;1924;48.078;11.516;2023-07-24T14:25:08;35.40;;;0.80;;
3817;SDS011;1924;48.078;11.516;2023-07-24T14:27:35;35.23;;;0.80;;
3817;SDS011;1924;48.078;11.516;2023-07-24T14:30:03;35.17;;;0.80;;
3817;SDS011;1924;48.078;11.516;2023-07-24T14:32:31;35.27;;;0.80;;
3817;SDS011;1924;48.078;11.516;2023-07-24T14:34:58;35.50;;;0.80;;
3817;SDS011;1924;48.078;11.516;2023-07-24T14:37:25;35.37;;;0.80;;
3817;SDS011;1924;48.078;11.516;2023-07-24T14:39:51;35.33;;;0.80;;
3817;SDS011;1924;48.078;11.516;2023-07-24T14:42:18;35.50;;;0.80;;
3817;SDS011;1924;48.078;11.516;2023-07-24T14:44:45;35.47;;;0.80;;
3817;SDS011;1924;48.078;11.516;2023-07-24T14:47:13;35.43;;;0.80;;
3817;SDS011;1924;48.078;11.516;2023-07-24T14:49:40;35.57;;;0.80;;
3817;SDS011;1924;48.078;11.516;2023-07-24T14:52:07;35.50;;;0.80;;
3817;SDS011;1924;48.078;11.516;2023-07-24T14:54:34;35.33;;;0.80;;
3817;SDS011;1924;48.078;11.516;2023-07-24T14:57:00;35.67;;;0.80;;
3817;SDS011;1924;48.078;11.516;2023-07-24T14:59:28;35.60;;;0.80;;
3817;SDS011;1924;48.078;11.516;2023-07-24T15:01:54;35.47;;;0.80;;
3817;SDS011;1924;48.078;11.516;2023-07-24T15:04:22;35.57;;;0.80;;
3817;SDS011;1924;48.078;11.516;2023-07-24T15:06:49;35.67;;;0.80;;
3817;SDS011;1924;48.078;11.516;2023-07-24T15:09:16;35.53;;;0.80;;
3817;SDS011;1924;48.078;11.516;2023-07-24T15:11:43;35.67;;;0.80;;
3817;SDS011;1924;48.078;11.516;2023-07-24T15:14:09;35.43;;;0.80;;
3817;SDS011;1924;48.078;11.516;2023-07-24T15:16:36;35.60;;;0.80;;
3817;SDS011;1924;48.078;11.516;2023-07-24T15:19:03;35.67;;;0.80;;
3817;SDS011;1924;48.078;11.516;2023-07-24T15:21:31;35.53;;;0.80;;
3817;SDS011;1924;48.078;11.516;2023-07-24T15:23:57;35.70;;;0.80;;
3817;SDS011;1924;48.078;11.516;2023-07-24T15:26:24;35.70;;;0.80;;
3817;SDS011;1924;48.078;11.516;2023-07-24T15:28:51;35.70;;;0.80;;
3817;SDS011;1924;48.078;11.516;2023-07-24T15:31:18;35.60;;;0.80;;
3817;SDS011;1924;48.078;11.516;2023-07-24T15:33:45;35.70;;;0.80;;
3817;SDS011;1924;48.078;11.516;2023-07-24T15:36:11;35.90;;;0.80;;
3817;SDS011;1924;48.078;11.516;2023-07-24T15:38:39;35.43;;;0.80;;
3817;SDS011;1924;48.078;11.516;2023-07-24T15:41:06;35.77;;;0.80;;
3817;SDS011;1924;48.078;11.516;2023-07-24T15:43:33;35.77;;;0.80;;
3817;SDS011;1924;48.078;11.516;2023-07-24T15:45:59;35.57;;;0.80;;
3817;SDS011;1924;48.078;11.516;2023-07-24T15:48:26;35.47;;;0.80;;
3817;SDS011;1924;48.078;11.516;2023-07-24T15:50:53;35.80;;;0.80;;
3817;SDS011;1924;48.078;11.516;2023-07-24T15:53:20;35.90;;;0.80;;
3817;SDS011;1924;48.078;11.516;2023-07-24T15:55:48;35.53;;;0.80;;
3817;SDS011;1924;48.078;11.516;2023-07-24T15:58:14;35.70;;;0.80;;
3817;SDS011;1924;48.078;11.516;2023-07-24T16:00:41;35.60;;;0.80;;
3817;SDS011;1924;48.078;11.516;2023-07-24T16:03:08;35.67;;;0.80;;
3817;SDS011;1924;48.078;11.516;2023-07-24T16:05:35;35.47;;;0.80;;
3817;SDS011;1924;48.078;11.516;2023-07-24T16:08:01;35.47;;;0.80;;
3817;SDS011;1924;48.078;11.516;2023-07-24T16:10:28;35.57;;;0.80;;
3817;SDS011;1924;48.078;11.516;2023-07-24T16:12:56;35.53;;;0.80;;
3817;SDS011;1924;48.078;11.516;2023-07-24T16:15:23;35.60;;;0.80;;
3817;SDS011;1924;48.078;11.516;2023-07-24T16:17:50;35.57;;;0.80;;
3817;SDS011;1924;48.078;11.516;2023-07-24T16:20:17;35.53;;;0.80;;
3817;SDS011;1924;48.078;11.516;2023-07-24T16:22:43;35.70;;;0.80;;
3817;SDS011;1924;48.078;11.516;2023-07-24T16:25:10;35.80;;;0.80;;
3817;SDS011;1924;48.078;11.516;2023-07-24T16:27:37;35.37;;;0.80;;
3817;SDS011;1924;48.078;11.516;2023-07-24T16:30:06;35.67;;;0.80;;
3817;SDS011;1924;48.078;11.516;2023-07-24T16:32:33;35.73;;;0.90;;
3817;SDS011;1924;48.078;11.516;2023-07-24T16:35:00;35.53;;;0.80;;
3817;SDS011;1924;48.078;11.516;2023-07-24T16:37:27;35.70;;;0.80;;
3817;SDS011;1924;48.078;11.516;2023-07-24T16:39:54;35.57;;;0.80;;
3817;SDS011;1924;48.078;11.516;2023-07-24T16:42:22;35.57;;;0.80;;
3817;SDS011;1924;48.078;11.516;2023-07-24T16:44:48;35.37;;;0.80;;
3817;SDS011;1924;48.078;11.516;2023-07-24T16:47:16;35.40;;;0.80;;
3817;SDS011;1924;48.078;11.516;2023-07-24T16:49:43;35.23;;;0.80;;
3817;SDS011;1924;48.078;11.516;2023-07-24T16:52:10;35.33;;;0.80;;
3817;SDS011;1924;48.078;11.516;2023-07-24T16:54:37;35.17;;;0.80;;
3817;SDS011;1924;48.078;11.516;2023-07-24T16:57:04;35.17;;;0.80;;
3817;SDS011;1924;48.078;11.516;2023-07-24T16:59:31;35.50;;;0.80;;
3817;SDS011;1924;48.078;11.516;2023-07-24T17:01:57;35.33;;;0.80;;
3817;SDS011;1924;48.078;11.516;2023-07-24T17:04:26;35.10;;;0.80;;
3817;SDS011;1924;48.078;11.516;2023-07-24T17:06:52;35.33;;;0.80;;
3817;SDS011;1924;48.078;11.516;2023-07-24T17:09:19;35.27;;;0.80;;
3817;SDS011;1924;48.078;11.516;2023-07-24T17:11:46;35.43;;;0.80;;
3817;SDS011;1924;48.078;11.516;2023-07-24T17:14:13;35.60;;;0.80;;
3817;SDS011;1924;48.078;11.516;2023-07-24T17:16:39;35.37;;;0.80;;
3817;SDS011;1924;48.078;11.516;2023-07-24T17:19:06;35.40;;;0.80;;
3817;SDS011;1924;48.078;11.516;2023-07-24T17:21:35;35.47;;;0.80;;
3817;SDS011;1924;48.078;11.516;2023-07-24T17:24:03;35.70;;;0.80;;
3817;SDS011;1924;48.078;11.516;2023-07-24T17:26:29;35.47;;;0.80;;
3817;SDS011;1924;48.078;11.516;2023-07-24T17:28:59;35.70;;;0.80;;
3817;SDS011;1924;48.078;11.516;2023-07-24T17:31:26;35.23;;;0.80;;
3817;SDS011;1924;48.078;11.516;2023-07-24T17:33:53;35.67;;;0.80;;
3817;SDS011;1924;48.078;11.516;2023-07-24T17:36:20;35.43;;;0.80;;
3817;SDS011;1924;48.078;11.516;2023-07-24T17:38:48;35.70;;;0.80;;
3817;SDS011;1924;48.078;11.516;2023-07-24T17:41:15;35.60;;;0.80;;
3817;SDS011;1924;48.078;11.516;2023-07-24T17:43:42;35.70;;;0.80;;
3817;SDS011;1924;48.078;11.516;2023-07-24T17:46:09;35.30;;;0.80;;
3817;SDS011;1924;48.078;11.516;2023-07-24T17:48:36;35.57;;;0.80;;
3817;SDS011;1924;48.078;11.516;2023-07-24T17:51:02;35.63;;;0.80;;
3817;SDS011;1924;48.078;11.516;2023-07-24T17:53:30;35.33;;;0.80;;
3817;SDS011;1924;48.078;11.516;2023-07-24T17:55:58;35.47;;;0.80;;
3817;SDS011;1924;48.078;11.516;2023-07-24T17:58:24;35.67;;;0.80;;
3817;SDS011;1924;48.078;11.516;2023-07-24T18:00:51;35.50;;;0.80;;
3817;SDS011;1924;48.078;11.516;2023-07-24T18:03:18;35.53;;;0.80;;
3817;SDS011;1924;48.078;11.516;2023-07-24T18:05:45;35.47;;;0.80;;
3817;SDS011;1924;48.078;11.516;2023-07-24T18:08:12;35.67;;;0.80;;
3817;SDS011;1924;48.078;11.516;2023-07-24T18:10:38;35.43;;;0.80;;
3817;SDS011;1924;48.078;11.516;2023-07-24T18:13:06;35.53;;;0.80;;
3817;SDS011;1924;48.078;11.516;2023-07-24T18:15:33;35.77;;;0.80;;
3817;SDS011;1924;48.078;11.516;2023-07-24T18:18:00;35.53;;;0.80;;
3817;SDS011;1924;48.078;11.516;2023-07-24T18:20:28;35.77;;;0.80;;
3817;SDS011;1924;48.078;11.516;2023-07-24T18:22:55;35.80;;;0.80;;
3817;SDS011;1924;48.078;11.516;2023-07-24T18:25:22;35.90;;;0.80;;
3817;SDS011;1924;48.078;11.516;2023-07-24T18:27:49;35.90;;;0.80;;
3817;SDS011;1924;48.078;11.516;2023-07-24T18:30:17;35.67;;;0.80;;
3817;SDS011;1924;48.078;11.516;2023-07-24T18:32:44;35.73;;;0.80;;
3817;SDS011;1924;48.078;11.516;2023-07-24T18:35:10;35.90;;;0.80;;
3817;SDS011;1924;48.078;11.516;2023-07-24T18:37:38;35.77;;;0.80;;
3817;SDS011;1924;48.078;11.516;2023-07-24T18:40:05;36.07;;;0.80;;
3817;SDS011;1924;48.078;11.516;2023-07-24T18:42:33;35.77;;;0.80;;
3817;SDS011;1924;48.078;11.516;2023-07-24T18:44:59;36.03;;;0.80;;
3817;SDS011;1924;48.078;11.516;2023-07-24T18:47:28;36.03;;;0.80;;
3817;SDS011;1924;48.078;11.516;2023-07-24T18:49:55;36.07;;;0.80;;